Time;durP1;ratioP1;P1;durP2;ratioP2;P2;SDS_P1;SDS_P2;PMS_P1;PMS_P2;Temp;Humidity;BMP_temperature;BMP_pressure;BME280_temperature;BME280_humidity;BME280_pressure;Samples;Min_cycle;Max_cycle;Signal;HPM_P1;HPM_P2
2022/03/20 00:00:14;;;;;;;9.27;7.40;;;;;;;-1.36;43.02;97011.34;4903172;29;20040;-77
2022/03/20 00:02:40;;;;;;;10.23;7.65;;;;;;;-1.24;43.08;97005.41;4891743;29;20056;-77
2022/03/20 00:05:06;;;;;;;9.68;7.05;;;;;;;-1.23;42.90;97009.59;4907597;29;20059;-77
2022/03/20 00:07:33;;;;;;;11.07;7.20;;;;;;;-1.38;42.89;97012.38;4902762;29;20044;-78
2022/03/20 00:10:00;;;;;;;11.23;7.53;;;;;;;-1.40;43.41;97007.38;4901718;29;20049;-77
2022/03/20 00:12:25;;;;;;;10.05;7.18;;;;;;;-1.27;42.99;97008.19;4902808;29;20029;-77
2022/03/20 00:14:51;;;;;;;7.45;6.75;;;;;;;-1.08;42.72;97009.47;4903694;29;20029;-77
2022/03/20 00:17:16;;;;;;;11.38;7.43;;;;;;;-1.04;42.39;97014.25;4900460;29;20032;-77
2022/03/20 00:19:42;;;;;;;12.88;7.88;;;;;;;-1.05;42.40;97011.81;4886525;29;20096;-76
2022/03/20 00:22:07;;;;;;;12.07;7.85;;;;;;;-0.98;42.25;97020.66;4903558;29;20036;-76
2022/03/20 00:24:33;;;;;;;14.30;8.32;;;;;;;-0.99;42.53;97016.47;4886921;29;20107;-77
2022/03/20 00:26:58;;;;;;;12.13;8.20;;;;;;;-0.93;42.61;97011.78;4901993;29;20040;-77
2022/03/20 00:29:27;;;;;;;13.98;7.95;;;;;;;-0.88;41.91;97019.13;4901940;29;20602;-77
2022/03/20 00:31:53;;;;;;;12.07;8.90;;;;;;;-0.82;42.25;97005.91;4870943;29;20223;-77
2022/03/20 00:34:18;;;;;;;10.38;7.70;;;;;;;-0.72;42.16;97009.44;4908654;29;20099;-77
2022/03/20 00:39:13;;;;;;;16.75;8.90;;;;;;;-0.64;41.91;97012.28;4934619;23;20059;-77
2022/03/20 00:41:39;;;;;;;13.10;8.55;;;;;;;-0.61;42.04;97011.25;4920999;29;20067;-77
2022/03/20 00:44:05;;;;;;;13.35;9.32;;;;;;;-0.54;41.83;97017.56;4920425;29;20035;-77
2022/03/20 00:46:30;;;;;;;10.48;7.90;;;;;;;-0.61;41.09;97011.25;4905306;29;20027;-77
2022/03/20 00:48:55;;;;;;;14.77;8.05;;;;;;;-0.63;41.81;97008.81;4919926;29;20043;-77
2022/03/20 00:51:21;;;;;;;14.40;8.88;;;;;;;-0.49;41.63;97015.50;4921782;29;20043;-77
2022/03/20 00:53:46;;;;;;;16.02;8.63;;;;;;;-0.49;41.38;97004.44;4924126;29;20035;-77
2022/03/20 00:56:12;;;;;;;13.23;8.50;;;;;;;-0.41;41.20;97008.09;4923888;29;20091;-77
2022/03/20 00:58:38;;;;;;;18.15;9.25;;;;;;;-0.35;41.46;97007.63;4923404;29;20881;-78
2022/03/20 01:01:04;;;;;;;15.40;10.45;;;;;;;-0.29;41.38;97005.59;4923223;29;20557;-77
2022/03/20 01:03:30;;;;;;;25.85;10.35;;;;;;;-0.35;41.59;96997.41;4925210;29;20046;-77
2022/03/20 01:06:06;;;;;;;22.65;10.07;;;;;;;-0.36;42.12;97007.75;4924627;29;20048;-77
2022/03/20 01:08:32;;;;;;;26.52;12.23;;;;;;;-0.33;42.12;97000.72;4875070;29;20061;-77
2022/03/20 01:10:57;;;;;;;43.67;22.80;;;;;;;-0.43;43.52;97004.03;4850104;29;20046;-77
2022/03/20 01:13:23;;;;;;;22.23;12.25;;;;;;;-0.54;42.91;97004.78;4842615;29;20049;-77
2022/03/20 01:15:49;;;;;;;23.65;12.15;;;;;;;-0.53;42.86;97003.84;4842319;29;20041;-77
2022/03/20 01:18:14;;;;;;;19.95;12.10;;;;;;;-0.62;43.07;97000.22;4857763;29;20399;-77
2022/03/20 01:20:40;;;;;;;24.02;13.95;;;;;;;-0.71;43.37;97000.88;4858876;29;20649;-77
2022/03/20 01:23:05;;;;;;;24.80;12.25;;;;;;;-0.78;43.89;96994.56;4857839;29;20033;-77
2022/03/20 01:25:31;;;;;;;27.38;12.60;;;;;;;-0.79;43.69;97003.16;4858237;29;20041;-77
2022/03/20 01:27:56;;;;;;;20.70;13.23;;;;;;;-0.84;43.50;97000.09;4842886;29;20093;-77
2022/03/20 01:30:22;;;;;;;19.77;12.32;;;;;;;-0.88;44.04;97000.41;4858481;29;20030;-77
2022/03/20 01:32:47;;;;;;;20.27;13.10;;;;;;;-0.96;44.19;96991.56;4851851;29;20053;-77
2022/03/20 01:35:13;;;;;;;23.52;13.20;;;;;;;-1.02;44.47;96991.16;4844765;29;20038;-77
2022/03/20 01:37:41;;;;;;;21.90;13.85;;;;;;;-1.02;44.52;96986.06;4827497;29;20029;-77
2022/03/20 01:40:07;;;;;;;19.50;12.23;;;;;;;-1.08;44.91;96992.41;4857667;29;20049;-77
2022/03/20 01:42:33;;;;;;;20.25;11.50;;;;;;;-1.11;45.63;96996.94;4842899;29;20030;-77
2022/03/20 01:44:58;;;;;;;24.98;14.48;;;;;;;-1.12;45.77;96990.19;4827788;29;20422;-77
2022/03/20 01:47:23;;;;;;;35.28;17.33;;;;;;;-1.12;45.54;96995.28;4857726;29;20033;-77
2022/03/20 01:49:49;;;;;;;44.28;18.95;;;;;;;-1.18;45.69;96995.69;4859838;29;20041;-77
2022/03/20 01:52:15;;;;;;;36.50;16.27;;;;;;;-1.19;45.78;96999.19;4859342;29;20398;-77
2022/03/20 01:54:45;;;;;;;31.10;14.13;;;;;;;-1.17;45.98;97007.53;4857845;29;20033;-77
2022/03/20 01:57:16;;;;;;;36.22;16.95;;;;;;;-1.18;45.94;96998.25;4895833;23;20134;-76
2022/03/20 01:59:41;;;;;;;42.22;19.77;;;;;;;-1.13;45.73;97003.88;4953624;28;20042;-77
2022/03/20 02:02:07;;;;;;;46.45;23.02;;;;;;;-1.22;45.92;97008.69;4962279;28;20038;-77
2022/03/20 02:04:36;;;;;;;47.15;21.25;;;;;;;-1.19;46.59;97011.94;4952724;28;20057;-77
2022/03/20 02:07:02;;;;;;;70.93;29.45;;;;;;;-1.16;46.82;97006.63;4953027;28;20070;-77
2022/03/20 02:09:28;;;;;;;41.42;20.92;;;;;;;-1.19;45.87;96996.63;4947226;23;20473;-77
2022/03/20 02:11:54;;;;;;;57.67;24.27;;;;;;;-1.18;45.96;97006.72;4933466;29;20040;-76
2022/03/20 02:14:20;;;;;;;72.18;24.92;;;;;;;-1.21;46.36;97002.66;4913231;29;20464;-76
2022/03/20 02:16:46;;;;;;;62.92;26.00;;;;;;;-1.24;46.96;97007.97;4912374;29;20028;-77
2022/03/20 02:19:13;;;;;;;82.30;29.05;;;;;;;-1.24;47.40;97010.53;4889220;29;20063;-76
2022/03/20 02:21:45;;;;;;;81.82;30.27;;;;;;;-1.21;46.96;97000.09;4919805;29;20115;-76
2022/03/20 02:24:29;;;;;;;78.00;28.40;;;;;;;-1.25;47.26;97006.34;4914342;29;20059;-77
2022/03/20 02:27:17;;;;;;;87.13;32.70;;;;;;;-1.34;47.47;97006.13;4914330;29;20032;-76
2022/03/20 02:29:58;;;;;;;68.38;28.83;;;;;;;-1.42;47.51;97006.69;4914101;29;20572;-76
2022/03/20 02:32:28;;;;;;;42.25;21.35;;;;;;;-1.45;46.81;97006.88;4928841;29;20047;-77
2022/03/20 02:34:59;;;;;;;52.58;25.17;;;;;;;-1.52;47.09;97003.09;4903020;29;20047;-77
2022/03/20 02:37:25;;;;;;;43.42;22.67;;;;;;;-1.52;47.47;97009.03;4913149;29;20149;-77
2022/03/20 02:39:54;;;;;;;49.63;21.50;;;;;;;-1.57;47.52;97015.34;4905309;29;20518;-77
2022/03/20 02:42:19;;;;;;;33.17;18.60;;;;;;;-1.66;47.52;97018.50;4928078;29;20043;-77
2022/03/20 02:45:00;;;;;;;31.08;17.63;;;;;;;-1.62;47.60;97004.66;4913295;29;20032;-76
2022/03/20 02:47:26;;;;;;;31.15;16.27;;;;;;;-1.59;47.03;96996.78;4913262;29;20492;-76
2022/03/20 02:49:59;;;;;;;36.40;18.30;;;;;;;-1.69;48.27;96998.31;4913558;29;20048;-76
2022/03/20 02:52:32;;;;;;;57.58;32.50;;;;;;;-1.77;47.87;96992.94;4914127;29;20114;-76
2022/03/20 02:55:01;;;;;;;;;;;;;;;-1.85;48.23;96996.78;4914494;29;20119;-76
2022/03/20 02:57:30;;;;;;;36.97;18.80;;;;;;;-1.89;48.29;97000.47;4912630;29;20497;-77
2022/03/20 03:00:00;;;;;;;37.85;19.08;;;;;;;-1.84;48.57;96993.31;4917839;29;20039;-77
2022/03/20 03:02:31;;;;;;;42.20;22.55;;;;;;;-1.91;48.11;97006.59;4932903;29;20115;-76
2022/03/20 03:04:59;;;;;;;41.78;17.23;;;;;;;-1.91;48.13;97002.28;4913764;29;20489;-76
2022/03/20 03:07:27;;;;;;;30.70;15.68;;;;;;;-1.99;48.06;96998.59;4914023;29;20048;-77
2022/03/20 03:12:36;;;;;;;31.23;13.93;;;;;;;-1.85;47.55;96996.78;4926669;29;20087;-77
2022/03/20 03:15:19;;;;;;;26.15;13.43;;;;;;;-1.78;47.13;96998.94;4887603;29;20043;-77
2022/03/20 03:17:46;;;;;;;23.92;13.32;;;;;;;-1.78;47.61;96997.22;4916675;29;20035;-77
2022/03/20 03:20:11;;;;;;;30.70;13.63;;;;;;;-1.74;47.39;96997.81;4921008;29;20752;-77
2022/03/20 03:22:37;;;;;;;25.25;13.13;;;;;;;-1.74;47.33;96998.63;4913078;29;20056;-76
2022/03/20 03:25:02;;;;;;;29.40;14.90;;;;;;;-1.85;47.86;97004.44;4927816;29;20040;-77
2022/03/20 03:27:28;;;;;;;30.02;14.75;;;;;;;-1.87;47.34;97003.72;4913467;29;20036;-76
2022/03/20 03:29:53;;;;;;;28.75;14.93;;;;;;;-1.89;47.30;97008.13;4913386;29;20095;-76
2022/03/20 03:32:19;;;;;;;27.38;15.85;;;;;;;-2.00;47.84;97002.88;4912279;29;20115;-76
2022/03/20 03:37:28;;;;;;;29.92;15.95;;;;;;;-2.07;48.11;97011.88;4925761;29;20063;-76
2022/03/20 03:39:54;;;;;;;29.25;14.98;;;;;;;-2.00;48.33;97004.63;4911566;29;20889;-76
2022/03/20 03:42:19;;;;;;;27.10;15.80;;;;;;;-2.18;49.32;96999.81;4920096;29;20880;-76
2022/03/20 03:44:46;;;;;;;35.30;16.98;;;;;;;-2.21;49.18;97015.31;4912790;29;20500;-76
2022/03/20 03:47:11;;;;;;;35.17;18.35;;;;;;;-2.15;49.22;97014.09;4927740;29;20044;-76
2022/03/20 03:49:37;;;;;;;36.28;20.42;;;;;;;-2.14;49.08;97020.81;4912961;29;20048;-76
2022/03/20 03:52:03;;;;;;;42.28;18.85;;;;;;;-2.09;49.45;97023.91;4912300;29;20044;-76
2022/03/20 03:54:29;;;;;;;35.97;18.80;;;;;;;-2.03;48.89;97023.50;4887693;29;20047;-76
2022/03/20 03:56:54;;;;;;;38.38;18.70;;;;;;;-2.04;48.93;97021.84;4927675;29;20032;-76
2022/03/20 03:59:20;;;;;;;52.80;19.15;;;;;;;-2.20;49.61;97009.28;4913187;29;20082;-76
2022/03/20 04:01:45;;;;;;;44.53;20.52;;;;;;;-2.25;50.19;97018.16;4913034;29;20031;-76
2022/03/20 04:04:11;;;;;;;43.90;24.15;;;;;;;-2.22;50.66;97017.97;4912577;29;20032;-76
2022/03/20 04:06:36;;;;;;;45.47;23.38;;;;;;;-2.21;50.22;97014.50;4911756;29;20044;-76
2022/03/20 04:09:02;;;;;;;58.45;28.50;;;;;;;-2.30;50.95;97009.97;4926693;29;20107;-76
2022/03/20 04:11:27;;;;;;;73.90;30.33;;;;;;;-2.26;50.16;97016.53;4912969;29;20043;-76
2022/03/20 04:13:53;;;;;;;104.20;42.72;;;;;;;-2.20;50.33;97011.03;4911641;29;20480;-76
2022/03/20 04:16:18;;;;;;;108.32;44.00;;;;;;;-2.27;50.75;97010.63;4910934;29;20412;-76
2022/03/20 04:18:44;;;;;;;96.55;41.65;;;;;;;-2.21;50.73;97004.28;4926979;29;20047;-77
2022/03/20 04:21:10;;;;;;;99.57;42.05;;;;;;;-2.19;50.92;97002.47;4895783;29;20970;-76
2022/03/20 04:23:49;;;;;;;88.13;40.53;;;;;;;-2.28;50.30;97010.69;4927500;29;20052;-77
2022/03/20 04:26:19;;;;;;;74.15;33.50;;;;;;;-2.37;51.37;97009.56;4916381;29;20040;-77
2022/03/20 04:28:47;;;;;;;74.47;36.30;;;;;;;-2.31;50.74;97009.16;4937821;29;20024;-77
2022/03/20 04:31:16;;;;;;;72.85;36.60;;;;;;;-2.25;50.96;97018.16;4915669;29;20040;-76
2022/03/20 04:33:44;;;;;;;63.33;35.90;;;;;;;-2.25;50.78;97018.16;4915775;29;20064;-76
2022/03/20 04:36:10;;;;;;;77.85;37.97;;;;;;;-2.31;50.84;97011.69;4916790;29;20099;-76
2022/03/20 04:38:38;;;;;;;67.05;34.15;;;;;;;-2.32;50.66;97006.72;4919003;29;20036;-77
2022/03/20 04:41:04;;;;;;;68.25;33.95;;;;;;;-2.23;51.00;97022.22;4931140;29;20082;-77
2022/03/20 04:43:30;;;;;;;69.68;32.72;;;;;;;-2.12;50.65;97024.06;4930294;29;20044;-77
2022/03/20 04:45:55;;;;;;;64.22;33.85;;;;;;;-1.96;50.44;97024.72;4902042;29;20043;-76
2022/03/20 04:59:16;;;;;;;123.75;67.43;;;;;;;-0.56;47.72;97023.69;4931211;29;20043;-77
2022/03/20 05:01:42;;;;;;;108.28;56.45;;;;;;;-0.11;45.47;97020.41;4924985;29;20036;-77
2022/03/20 05:04:07;;;;;;;93.78;46.97;;;;;;;0.51;43.75;97017.50;4925170;29;20054;-77
2022/03/20 05:06:32;;;;;;;83.03;44.05;;;;;;;1.36;41.69;97014.41;4908394;29;20051;-77
2022/03/20 05:13:19;;;;;;;100.40;50.22;;;;;;;2.39;39.99;97013.69;4908431;29;20048;-77
2022/03/20 05:14:28;;;;;;;92.00;46.47;;;;;;;4.59;35.06;97012.47;4926053;29;20103;-78
2022/03/20 05:16:53;;;;;;;96.32;48.95;;;;;;;5.60;33.83;97018.50;4928497;23;20040;-77
2022/03/20 05:19:19;;;;;;;101.35;46.58;;;;;;;6.37;32.51;97015.28;4923385;29;20071;-77
2022/03/20 05:21:45;;;;;;;97.72;53.25;;;;;;;7.03;31.24;97014.69;4924878;29;20036;-77
2022/03/20 05:24:13;;;;;;;114.85;58.83;;;;;;;7.53;31.25;97016.47;4923842;29;20068;-78
2022/03/20 05:26:41;;;;;;;107.78;60.40;;;;;;;7.83;30.73;97023.66;4925114;29;20257;-78
2022/03/20 05:29:07;;;;;;;129.30;71.50;;;;;;;7.89;29.90;97021.38;4939428;29;20130;-78
2022/03/20 05:31:32;;;;;;;96.95;48.10;;;;;;;7.88;28.56;97024.94;4924366;29;20500;-78
2022/03/20 05:33:59;;;;;;;102.30;45.35;;;;;;;8.03;28.25;97028.50;4931277;29;20036;-78
2022/03/20 05:36:28;;;;;;;56.22;31.08;;;;;;;8.11;27.68;97025.91;4922988;29;20032;-78
2022/03/20 05:38:57;;;;;;;45.58;25.52;;;;;;;8.17;27.14;97034.84;4922589;29;20113;-78
2022/03/20 05:44:06;;;;;;;45.97;25.38;;;;;;;8.18;27.19;97029.50;4923543;29;20054;-77
2022/03/20 05:46:32;;;;;;;43.28;20.70;;;;;;;8.21;27.72;97036.13;4925493;29;20036;-77
2022/03/20 05:48:57;;;;;;;31.02;17.58;;;;;;;8.25;27.17;97033.03;4923495;29;20087;-78
2022/03/20 05:51:23;;;;;;;22.88;13.73;;;;;;;8.27;26.25;97040.66;4910684;29;20094;-78
2022/03/20 05:53:48;;;;;;;24.90;13.88;;;;;;;8.25;27.11;97037.41;4935295;29;20043;-77
2022/03/20 05:58:58;;;;;;;16.08;10.75;;;;;;;8.12;27.30;97040.47;4913892;29;20122;-77
2022/03/20 06:01:24;;;;;;;21.60;11.68;;;;;;;8.12;26.80;97035.31;4957467;23;20978;-77
2022/03/20 06:03:49;;;;;;;31.13;11.02;;;;;;;8.19;26.42;97038.88;4925570;29;20461;-77
2022/03/20 06:06:15;;;;;;;18.95;10.05;;;;;;;8.34;26.28;97044.25;4936112;29;20036;-77
2022/03/20 06:08:41;;;;;;;19.38;10.48;;;;;;;8.47;25.83;97047.19;4932755;29;20044;-77
2022/03/20 06:11:06;;;;;;;18.92;10.88;;;;;;;8.56;26.36;97035.00;4924353;29;20032;-78
2022/03/20 06:13:34;;;;;;;14.80;9.63;;;;;;;8.39;26.67;97049.75;4927199;29;20405;-77
2022/03/20 06:16:00;;;;;;;15.73;10.35;;;;;;;8.61;25.48;97050.84;4931170;29;20028;-77
2022/03/20 06:18:28;;;;;;;16.63;9.13;;;;;;;8.66;26.42;97044.22;4924675;29;20426;-77
2022/03/20 06:20:54;;;;;;;16.75;9.95;;;;;;;8.95;25.96;97051.47;4907492;29;20040;-77
2022/03/20 06:23:19;;;;;;;16.88;9.48;;;;;;;9.09;26.14;97046.53;4911947;23;20067;-77
2022/03/20 06:25:45;;;;;;;18.85;9.70;;;;;;;9.23;25.65;97043.25;4944858;29;20059;-77
2022/03/20 06:28:10;;;;;;;23.67;12.48;;;;;;;9.43;25.26;97044.44;4944133;29;20032;-77
2022/03/20 06:30:36;;;;;;;23.00;10.35;;;;;;;9.46;25.18;97041.53;4942349;29;20055;-77
2022/03/20 06:33:04;;;;;;;14.75;11.05;;;;;;;9.53;25.45;97045.06;4963279;23;20052;-77
2022/03/20 06:35:30;;;;;;;16.65;9.82;;;;;;;9.58;25.11;97037.56;4915014;29;20032;-78
2022/03/20 06:37:55;;;;;;;16.70;10.18;;;;;;;9.69;24.59;97049.34;4914490;29;20477;-77
2022/03/20 06:40:21;;;;;;;14.82;10.50;;;;;;;9.83;24.19;97045.22;4914156;29;20500;-77
2022/03/20 06:42:47;;;;;;;20.58;10.43;;;;;;;9.89;24.80;97047.13;4898565;29;20114;-77
2022/03/20 06:45:13;;;;;;;12.10;9.00;;;;;;;9.85;23.68;97045.84;4913635;29;20036;-78
2022/03/20 06:47:39;;;;;;;17.02;9.65;;;;;;;9.84;23.34;97049.44;4882552;29;20730;-78
2022/03/20 06:50:05;;;;;;;17.70;9.88;;;;;;;9.70;24.17;97047.56;4912469;29;20044;-78
2022/03/20 06:52:31;;;;;;;19.33;10.30;;;;;;;9.75;24.07;97045.25;4914808;29;20038;-78
2022/03/20 06:54:58;;;;;;;13.55;9.63;;;;;;;9.54;23.29;97048.47;4897737;29;20095;-77
2022/03/20 06:57:23;;;;;;;16.10;10.02;;;;;;;9.38;24.02;97057.13;4913976;29;20562;-77
2022/03/20 06:59:49;;;;;;;18.73;9.90;;;;;;;9.09;24.22;97054.31;4897247;29;20040;-76
2022/03/20 07:02:18;;;;;;;15.15;9.43;;;;;;;9.10;24.29;97054.16;4915092;29;20104;-78
2022/03/20 07:04:44;;;;;;;13.77;8.63;;;;;;;9.25;23.91;97056.88;4883511;29;20115;-78
2022/03/20 07:07:10;;;;;;;13.90;9.27;;;;;;;8.84;24.13;97059.59;4915286;29;20048;-77
2022/03/20 07:09:35;;;;;;;13.13;9.00;;;;;;;8.77;24.35;97048.25;4896707;29;20043;-77
2022/03/20 07:12:01;;;;;;;14.23;9.38;;;;;;;8.64;24.37;97058.34;4914023;29;20024;-77
2022/03/20 07:14:26;;;;;;;11.60;8.23;;;;;;;8.59;25.08;97055.41;4896951;29;20036;-77
2022/03/20 07:16:53;;;;;;;14.15;8.98;;;;;;;8.79;24.15;97051.50;4898750;29;20043;-77
2022/03/20 07:19:18;;;;;;;17.17;10.23;;;;;;;8.45;24.81;97063.84;4917319;29;20031;-77
2022/03/20 07:21:43;;;;;;;15.82;9.40;;;;;;;7.80;25.66;97055.03;4920809;29;20028;-77
2022/03/20 07:24:09;;;;;;;14.43;9.55;;;;;;;7.36;25.97;97051.03;4898586;29;20043;-76
2022/03/20 07:29:30;;;;;;;13.02;8.88;;;;;;;6.23;28.08;97057.97;4900449;29;20465;-77
2022/03/20 07:31:59;;;;;;;14.75;8.88;;;;;;;6.30;27.06;97058.19;4914438;29;20389;-78
2022/03/20 07:34:25;;;;;;;14.85;8.13;;;;;;;6.63;27.02;97054.88;4917020;29;20039;-77
2022/03/20 07:36:51;;;;;;;13.45;9.35;;;;;;;6.67;27.15;97051.97;4899058;29;20044;-76
2022/03/20 07:39:17;;;;;;;14.73;9.15;;;;;;;6.61;26.94;97056.00;4913272;29;20462;-76
2022/03/20 07:41:43;;;;;;;14.55;7.82;;;;;;;6.80;26.22;97054.97;4881999;29;20047;-77
2022/03/20 07:44:08;;;;;;;9.57;6.53;;;;;;;7.02;26.12;97058.81;4913599;29;20048;-77
2022/03/20 07:46:35;;;;;;;11.88;7.72;;;;;;;7.17;25.53;97047.75;4913349;29;20032;-77
2022/03/20 07:49:02;;;;;;;13.20;7.45;;;;;;;7.32;26.09;97045.38;4911685;29;20040;-76
2022/03/20 07:51:30;;;;;;;11.05;7.65;;;;;;;7.57;25.64;97048.03;4913621;29;20049;-76
2022/03/20 07:53:55;;;;;;;11.95;6.85;;;;;;;7.34;25.91;97045.22;4912236;29;20500;-77
2022/03/20 07:56:22;;;;;;;17.20;9.05;;;;;;;6.92;26.07;97046.00;4874513;29;20025;-77
2022/03/20 07:58:48;;;;;;;10.93;8.00;;;;;;;6.96;25.42;97039.53;4911247;29;20456;-77
2022/03/20 08:01:13;;;;;;;11.38;8.32;;;;;;;7.16;26.10;97034.97;4874663;29;20035;-77
2022/03/20 08:03:41;;;;;;;12.43;8.23;;;;;;;7.27;26.82;97026.09;4892293;29;20034;-77
2022/03/20 08:06:07;;;;;;;14.95;8.48;;;;;;;7.28;26.11;97027.69;4915633;29;20036;-77
2022/03/20 08:08:39;;;;;;;16.58;8.90;;;;;;;7.18;25.76;97033.84;4907258;29;20111;-76
2022/03/20 08:11:05;;;;;;;13.20;8.45;;;;;;;7.18;26.21;97036.41;4915258;29;20509;-77
2022/03/20 08:13:31;;;;;;;9.85;8.02;;;;;;;6.68;26.76;97032.94;4914936;29;20028;-77
2022/03/20 08:15:57;;;;;;;17.20;8.15;;;;;;;6.55;26.59;97021.22;4896701;29;20424;-76
2022/03/20 08:18:23;;;;;;;14.82;7.90;;;;;;;6.60;28.12;97018.97;4918076;29;20088;-78
2022/03/20 08:20:48;;;;;;;15.32;8.00;;;;;;;6.81;25.98;97018.59;4895028;29;20028;-79
2022/03/20 08:23:14;;;;;;;14.25;8.00;;;;;;;6.93;26.04;97008.81;4900920;29;20412;-77
2022/03/20 08:25:39;;;;;;;10.82;7.93;;;;;;;6.58;26.61;97010.56;4901139;29;20040;-79
2022/03/20 08:28:09;;;;;;;24.30;8.13;;;;;;;6.44;26.96;97011.13;4887198;29;20055;-79
2022/03/20 08:30:36;;;;;;;8.40;7.15;;;;;;;6.45;27.36;97009.34;4953071;23;20528;-79
2022/03/20 08:33:01;;;;;;;10.75;7.82;;;;;;;5.55;27.38;97005.22;4920287;29;20047;-79
2022/03/20 08:35:27;;;;;;;11.15;7.70;;;;;;;5.39;27.58;97001.53;4908823;29;20036;-79
2022/03/20 08:37:54;;;;;;;16.77;7.57;;;;;;;5.26;27.78;97000.25;4889706;29;20037;-80
2022/03/20 08:40:21;;;;;;;11.75;8.18;;;;;;;5.29;27.54;97011.06;4906615;29;20044;-80
2022/03/20 08:42:54;;;;;;;9.45;7.07;;;;;;;5.54;27.57;97003.59;4876935;29;20504;-80
2022/03/20 08:45:21;;;;;;;14.88;7.30;;;;;;;4.96;27.72;96998.75;4888442;29;20072;-80
2022/03/20 08:47:46;;;;;;;9.30;6.93;;;;;;;4.90;27.67;97000.16;4914946;29;20060;-79
2022/03/20 08:50:15;;;;;;;16.65;7.63;;;;;;;4.85;28.78;96991.22;4911742;29;20040;-80
2022/03/20 08:52:42;;;;;;;15.40;7.63;;;;;;;5.09;28.29;96989.75;4906480;29;20057;-80
2022/03/20 08:55:11;;;;;;;10.68;7.80;;;;;;;5.23;27.79;97001.34;4902578;29;20151;-80
2022/03/20 08:57:47;;;;;;;11.50;7.38;;;;;;;4.96;28.82;96991.84;4900854;29;20095;-79
2022/03/20 09:00:14;;;;;;;13.73;8.10;;;;;;;4.78;27.91;96984.06;4885602;29;20096;-79
2022/03/20 09:02:49;;;;;;;12.82;7.93;;;;;;;4.74;28.77;96975.00;4896620;29;20028;-80
2022/03/20 09:05:15;;;;;;;10.77;6.95;;;;;;;4.22;28.93;96992.63;4900699;29;20041;-81
2022/03/20 09:07:41;;;;;;;13.15;7.18;;;;;;;4.22;29.36;96992.63;4903502;29;20051;-81
2022/03/20 09:10:07;;;;;;;13.82;7.45;;;;;;;4.35;28.68;96986.38;4915148;29;20115;-81
2022/03/20 09:12:34;;;;;;;18.00;7.50;;;;;;;4.35;28.66;96996.66;4882793;29;20036;-81
2022/03/20 09:15:04;;;;;;;24.67;7.70;;;;;;;4.24;29.05;96981.41;4885092;29;20025;-81
2022/03/20 09:20:14;;;;;;;9.00;7.30;;;;;;;4.62;28.11;96976.13;4903083;29;20055;-81
2022/03/20 09:22:40;;;;;;;9.15;6.88;;;;;;;4.65;28.26;96972.44;4887710;29;20028;-81
2022/03/20 09:25:07;;;;;;;13.55;8.68;;;;;;;4.71;28.16;96980.41;4903645;29;20092;-81
2022/03/20 09:27:33;;;;;;;10.35;7.28;;;;;;;4.81;28.76;96973.44;4901985;29;20485;-81
2022/03/20 09:29:58;;;;;;;15.35;7.78;;;;;;;4.87;28.53;96959.16;4902465;29;20036;-81
2022/03/20 09:32:24;;;;;;;12.00;6.90;;;;;;;4.79;27.85;96956.50;4901533;29;20036;-82
2022/03/20 09:34:49;;;;;;;16.85;7.55;;;;;;;4.86;28.27;96946.44;4885853;29;20040;-81
2022/03/20 09:37:15;;;;;;;6.78;5.78;;;;;;;5.00;27.86;96945.94;4903328;29;20527;-81
2022/03/20 09:39:40;;;;;;;9.63;7.30;;;;;;;5.19;27.56;96942.44;4885798;29;20048;-79
2022/03/20 09:42:06;;;;;;;16.35;7.93;;;;;;;5.20;27.84;96939.72;4895278;29;20044;-69
2022/03/20 09:44:34;;;;;;;15.65;7.88;;;;;;;5.38;27.59;96940.56;4895071;29;20058;-67
2022/03/20 09:47:00;;;;;;;11.48;6.53;;;;;;;5.47;27.53;96936.28;4894795;29;20036;-68
2022/03/20 09:49:25;;;;;;;11.40;6.40;;;;;;;5.47;27.12;96931.09;4894993;29;20036;-68
2022/03/20 09:51:52;;;;;;;9.60;6.82;;;;;;;5.54;26.36;96933.94;4895288;29;20033;-68
2022/03/20 09:54:18;;;;;;;9.60;6.13;;;;;;;5.06;26.91;96937.66;4894836;29;20032;-68
2022/03/20 09:56:43;;;;;;;9.77;6.75;;;;;;;4.90;26.62;96945.22;4894067;29;20110;-69
2022/03/20 09:59:09;;;;;;;6.93;6.15;;;;;;;4.66;27.76;96932.84;4893815;29;20040;-68
2022/03/20 10:01:35;;;;;;;7.50;6.00;;;;;;;4.38;27.32;96927.66;4895314;29;20489;-68
2022/03/20 10:04:11;;;;;;;8.18;5.43;;;;;;;4.61;26.94;96920.38;4895287;29;20039;-68
2022/03/20 10:06:37;;;;;;;10.00;6.53;;;;;;;4.56;27.17;96925.16;4895019;29;20076;-69
2022/03/20 10:09:08;;;;;;;6.55;5.53;;;;;;;4.18;27.88;96931.25;4894983;29;20047;-68
2022/03/20 10:11:35;;;;;;;8.55;5.05;;;;;;;4.14;27.26;96923.00;4894637;29;20501;-68
2022/03/20 10:14:22;;;;;;;10.13;5.63;;;;;;;4.03;27.26;96925.72;4896612;29;20119;-69
2022/03/20 10:16:57;;;;;;;11.13;5.72;;;;;;;3.97;28.11;96934.00;4896497;29;20539;-69
2022/03/20 10:19:23;;;;;;;14.35;8.55;;;;;;;4.14;27.69;96920.41;4900448;29;20041;-68
2022/03/20 10:21:52;;;;;;;9.13;6.72;;;;;;;4.22;27.77;96923.09;4895104;29;20412;-68
2022/03/20 10:24:23;;;;;;;8.35;6.25;;;;;;;4.29;27.20;96904.53;4894039;29;20041;-69
2022/03/20 10:26:53;;;;;;;8.73;6.25;;;;;;;4.54;27.63;96906.44;4894578;29;20036;-69
2022/03/20 10:29:19;;;;;;;7.13;5.63;;;;;;;4.61;27.39;96901.53;4893141;29;20044;-69
2022/03/20 10:31:51;;;;;;;9.55;5.35;;;;;;;4.77;27.32;96894.81;4894780;29;20115;-69
2022/03/20 10:34:17;;;;;;;7.78;5.43;;;;;;;4.72;28.11;96904.75;4895498;29;20032;-69
2022/03/20 10:36:43;;;;;;;8.43;5.43;;;;;;;4.87;27.55;96902.47;4892962;29;20040;-69
2022/03/20 10:39:14;;;;;;;8.02;6.22;;;;;;;4.38;28.03;96901.06;4893267;29;20033;-69
2022/03/20 10:41:39;;;;;;;9.32;6.47;;;;;;;4.07;27.90;96893.63;4894323;29;20048;-69
2022/03/20 10:44:24;;;;;;;17.17;5.90;;;;;;;4.16;27.99;96897.91;4877445;29;20044;-68
2022/03/20 10:47:02;;;;;;;7.28;5.68;;;;;;;4.36;28.36;96888.34;4894376;29;20025;-69
2022/03/20 10:49:27;;;;;;;6.97;5.68;;;;;;;4.49;27.85;96893.19;4894184;29;20049;-69
2022/03/20 10:52:09;;;;;;;11.73;8.23;;;;;;;4.35;27.94;96885.91;4892114;29;20048;-69
2022/03/20 10:54:38;;;;;;;21.63;11.00;;;;;;;3.99;28.84;96901.22;4894714;29;20120;-69
2022/03/20 10:57:06;;;;;;;19.85;8.75;;;;;;;3.71;28.43;96896.94;4894124;29;20029;-69
2022/03/20 10:59:32;;;;;;;12.60;6.35;;;;;;;3.67;28.74;96887.88;4894657;29;20039;-68
2022/03/20 11:01:58;;;;;;;12.80;5.97;;;;;;;3.87;28.57;96881.72;4878479;29;20425;-69
2022/03/20 11:04:24;;;;;;;7.25;5.55;;;;;;;4.11;28.69;96869.22;4893799;29;20032;-69
2022/03/20 11:06:50;;;;;;;6.80;5.97;;;;;;;4.38;28.60;96865.84;4893932;29;20524;-68
2022/03/20 11:09:16;;;;;;;9.02;4.88;;;;;;;4.58;28.34;96850.31;4894762;29;20045;-68
2022/03/20 11:11:47;;;;;;;6.07;5.25;;;;;;;4.86;27.90;96858.78;4894868;29;20028;-69
2022/03/20 11:14:20;;;;;;;9.98;5.70;;;;;;;4.61;27.94;96889.47;4894523;29;20139;-68
2022/03/20 11:16:58;;;;;;;9.25;5.75;;;;;;;4.67;27.55;96864.88;4892950;29;20059;-68
2022/03/20 11:19:28;;;;;;;14.13;5.10;;;;;;;4.78;27.44;96855.19;4893506;29;20473;-68
2022/03/20 11:21:54;;;;;;;7.88;5.78;;;;;;;4.76;27.21;96849.38;4893415;29;20036;-69
2022/03/20 11:24:19;;;;;;;6.95;5.32;;;;;;;4.83;27.19;96850.41;4893239;29;20552;-68
2022/03/20 11:26:50;;;;;;;6.20;5.60;;;;;;;4.61;27.10;96855.97;4894838;29;20029;-68
2022/03/20 11:29:16;;;;;;;10.88;6.03;;;;;;;4.52;27.76;96849.09;4892411;29;20068;-67
2022/03/20 11:31:42;;;;;;;8.23;5.93;;;;;;;4.19;28.03;96856.44;4893292;29;20033;-68
2022/03/20 11:34:08;;;;;;;8.23;6.07;;;;;;;3.90;28.20;96860.84;4892430;29;20111;-67
2022/03/20 11:37:00;;;;;;;6.80;5.65;;;;;;;3.69;28.65;96843.03;4893406;29;20028;-68
2022/03/20 11:39:25;;;;;;;11.23;5.90;;;;;;;3.80;28.67;96842.09;4894222;29;20044;-68
2022/03/20 11:42:22;;;;;;;7.22;5.57;;;;;;;4.01;28.49;96842.69;4894501;29;20357;-68
2022/03/20 11:45:00;;;;;;;8.00;5.30;;;;;;;4.31;28.87;96833.88;4897409;29;20045;-68
2022/03/20 11:47:30;;;;;;;13.27;5.05;;;;;;;4.56;28.14;96829.03;4898898;29;20036;-68
2022/03/20 11:50:21;;;;;;;8.13;5.70;;;;;;;4.32;27.37;96834.69;4894283;29;20036;-67
2022/03/20 11:53:02;;;;;;;9.48;5.68;;;;;;;4.18;28.03;96836.78;4894237;29;20040;-68
2022/03/20 11:55:32;;;;;;;7.63;4.90;;;;;;;4.14;27.92;96829.50;4892128;29;20116;-68
2022/03/20 11:58:02;;;;;;;6.35;5.30;;;;;;;4.34;28.28;96832.78;4893747;29;20123;-67
2022/03/20 12:00:30;;;;;;;8.82;5.72;;;;;;;3.90;28.27;96817.09;4878558;29;20028;-75